Terminal Aerodrome Forecast
Issued by NWS

Home | Current Version | Previous Version | Graphics & Text | Print | Product List | Glossary On
Versions: 1 2 3 4 5 6 7 8 9 10 11 12 13 14 15 16 17 18 19 20 21 22 23 24
000
FTUS43 KGRB 212306 AAB
TAFRHI
TAF AMD
KRHI 212306Z 2123/2218 12004KT 1/2SM -DZ FG OVC002
     FM220200 21003KT 1/4SM -DZ FG OVC001
      TEMPO 2209/2213 1/4SM -FZDZ FG OVC001
     FM221600 00000KT 1/2SM FG OVC002=

USA.gov is the U.S. government's official web portal to all federal, state and local government web resources and services.